Silda — 9HA4224 — position and weather

sailwx.info

Track history (hours):
 
Tides and Currents Weather Stations Pressure Air Temp Water Temp Dewpoint Dewpoint Depression Visibility Wind Speed Wind Dir Waves Ship Positions

Silda

Last reported at 2018-May-14 03:39 UTC. Time now 2018-May-25 03:29 UTC.
Position N 09°42' W 017°27'.
Warning: this ship's position is 10 days out of date.

Length 148 m; draft 5.8 m.

Type: Cargo ship. MMSI: 249381000.

Date/timePositionNaut miles runAvg speedWind from/ knotsBaromVisibWave heightAir tempDewpointWater temp
2018-May-14 03:39N 09°42' W 017°27'610.6
2018-May-14 03:06N 09°37' W 017°24'4910.8
2018-May-13 22:35N 08°56' W 016°56'111.0
2018-May-13 22:30N 08°56' W 016°56'910.9
2018-May-13 21:40N 08°48' W 016°50'210.9
2018-May-13 21:27N 08°46' W 016°49'1611.0
2018-May-13 19:57N 08°32' W 016°40'511.2
2018-May-13 19:30N 08°28' W 016°37'611.4
2018-May-13 18:55N 08°23' W 016°34'511.3
2018-May-13 18:30N 08°19' W 016°31'611.3
2018-May-13 18:00N 08°14' W 016°28'811.4
2018-May-13 17:16N 08°07' W 016°23'311.6
2018-May-13 17:00N 08°05' W 016°21'611.4
2018-May-13 16:30N 07°60' W 016°18'1811.4
2018-May-13 14:54N 07°45' W 016°08'1311.1
2018-May-13 13:44N 07°34' W 016°00'2111.1
2018-May-13 11:50N 07°16' W 015°49'2110.9
2018-May-13 09:54N 06°59' W 015°37'410.8
2018-May-13 09:30N 06°56' W 015°34'  
Track history (hours):
 
Tides and Currents Weather Stations Pressure Air Temp Water Temp Dewpoint Dewpoint Depression Visibility Wind Speed Wind Dir Waves Ship Positions

Silda

Last reported at 2018-May-14 03:39 UTC. Time now 2018-May-25 03:29 UTC.
Position N 09°42' W 017°27'.
Warning: this ship's position is 10 days out of date.

Length 148 m; draft 5.8 m.

Type: Cargo ship. MMSI: 249381000.

Date/timePositionNaut miles runAvg speedWind from/ knotsBaromVisibWave heightAir tempDewpointWater temp
2018-May-14 03:39N 09°42' W 017°27'610.6
2018-May-14 03:06N 09°37' W 017°24'4910.8
2018-May-13 22:35N 08°56' W 016°56'111.0
2018-May-13 22:30N 08°56' W 016°56'910.9
2018-May-13 21:40N 08°48' W 016°50'210.9
2018-May-13 21:27N 08°46' W 016°49'1611.0
2018-May-13 19:57N 08°32' W 016°40'511.2
2018-May-13 19:30N 08°28' W 016°37'611.4
2018-May-13 18:55N 08°23' W 016°34'511.3
2018-May-13 18:30N 08°19' W 016°31'611.3
2018-May-13 18:00N 08°14' W 016°28'811.4
2018-May-13 17:16N 08°07' W 016°23'311.6
2018-May-13 17:00N 08°05' W 016°21'611.4
2018-May-13 16:30N 07°60' W 016°18'1811.4
2018-May-13 14:54N 07°45' W 016°08'1311.1
2018-May-13 13:44N 07°34' W 016°00'2111.1
2018-May-13 11:50N 07°16' W 015°49'2110.9
2018-May-13 09:54N 06°59' W 015°37'410.8
2018-May-13 09:30N 06°56' W 015°34'  

Dump ship's entire track history